Time;durP1;ratioP1;P1;durP2;ratioP2;P2;SDS_P1;SDS_P2;PMS_P1;PMS_P2;Temp;Humidity;BMP_temperature;BMP_pressure;BME280_temperature;BME280_humidity;BME280_pressure;Samples;Min_cycle;Max_cycle;Signal;HPM_P1;HPM_P2
2021/07/10 00:01:57;;;;;;;12.80;7.57;;;;;;;19.49;80.13;100161.83;126763;1089;102923;-81
2021/07/10 00:04:46;;;;;;;10.53;7.17;;;;;;;19.51;80.52;100157.28;126834;1090;102934;-81
2021/07/10 00:07:35;;;;;;;12.63;7.60;;;;;;;19.53;80.72;100156.21;126987;1090;100523;-82
2021/07/10 00:10:23;;;;;;;9.73;7.27;;;;;;;19.57;80.82;100147.16;127026;1089;102789;-82
2021/07/10 00:13:11;;;;;;;11.03;7.77;;;;;;;19.60;80.44;100141.64;126745;1090;114150;-81
2021/07/10 00:15:59;;;;;;;12.23;7.63;;;;;;;19.64;80.45;100138.78;126797;1090;102855;-81
2021/07/10 00:18:47;;;;;;;11.57;7.87;;;;;;;19.67;80.36;100149.98;126777;1088;114318;-81
2021/07/10 00:21:34;;;;;;;;;;;;;;;19.69;80.33;100137.48;126844;1090;102936;-81
2021/07/10 00:24:22;;;;;;;11.07;7.50;;;;;;;19.71;80.99;100138.21;126810;1089;102948;-81
2021/07/10 00:27:11;;;;;;;9.60;7.70;;;;;;;19.75;81.64;100138.83;127021;1090;103004;-81
2021/07/10 00:29:59;;;;;;;12.10;7.73;;;;;;;19.78;81.18;100139.48;126757;1089;114238;-81
2021/07/10 00:32:48;;;;;;;12.13;8.37;;;;;;;19.81;80.78;100136.61;126940;1090;102924;-81
2021/07/10 00:35:36;;;;;;;11.37;7.97;;;;;;;19.85;80.62;100127.48;126903;1090;114414;-81
2021/07/10 00:38:24;;;;;;;10.03;7.30;;;;;;;19.88;80.76;100129.91;126778;1089;101807;-82
2021/07/10 00:41:12;;;;;;;12.53;8.30;;;;;;;19.91;81.18;100137.62;126833;1089;103180;-82
2021/07/10 00:44:00;;;;;;;13.40;8.63;;;;;;;19.92;80.83;100119.94;126803;1088;103032;-82
2021/07/10 00:46:48;;;;;;;12.27;8.50;;;;;;;19.93;80.36;100105.77;126970;1089;100899;-82
2021/07/10 00:49:36;;;;;;;9.93;8.07;;;;;;;19.97;80.49;100109.03;126782;1088;114423;-82
2021/07/10 00:52:23;;;;;;;10.97;8.33;;;;;;;19.99;80.27;100115.05;126824;1090;102420;-82
2021/07/10 00:55:12;;;;;;;12.47;8.37;;;;;;;19.99;80.21;100115.05;126675;1090;114252;-82
2021/07/10 00:58:02;;;;;;;13.00;8.93;;;;;;;19.97;80.38;100111.68;126856;1090;103329;-82
2021/07/10 01:00:49;;;;;;;14.60;9.20;;;;;;;19.95;80.31;100108.30;126783;1088;113344;-82
2021/07/10 01:03:44;;;;;;;14.23;9.33;;;;;;;19.92;80.25;100094.31;126807;1090;103016;-82
2021/07/10 01:06:32;;;;;;;13.97;9.00;;;;;;;19.92;80.58;100094.31;126734;1090;114472;-82
2021/07/10 01:09:20;;;;;;;14.03;8.53;;;;;;;19.95;80.57;100087.13;126918;1090;102849;-81
2021/07/10 01:12:08;;;;;;;14.80;8.97;;;;;;;19.94;80.47;100080.99;126872;1090;114412;-81
2021/07/10 01:14:57;;;;;;;11.63;8.03;;;;;;;19.91;80.18;100076.73;126783;1090;102660;-81
2021/07/10 01:17:46;;;;;;;9.90;8.20;;;;;;;19.91;80.02;100084.68;126764;1089;113471;-81
2021/07/10 01:20:33;;;;;;;13.97;9.80;;;;;;;19.88;80.42;100082.27;126863;1090;102840;-81
2021/07/10 01:23:23;;;;;;;15.03;9.23;;;;;;;19.88;80.81;100070.83;126861;1089;103185;-81
2021/07/10 01:26:11;;;;;;;12.60;8.70;;;;;;;19.89;80.30;100072.52;126690;1089;113003;-81
2021/07/10 01:28:58;;;;;;;13.27;8.37;;;;;;;19.83;79.89;100060.59;126864;1089;102843;-81
2021/07/10 01:31:47;;;;;;;10.70;9.00;;;;;;;19.80;79.72;100052.89;126775;1090;114550;-81
2021/07/10 01:34:35;;;;;;;16.20;9.45;;;;;;;19.81;80.34;100051.92;126818;1090;102878;-81
2021/07/10 01:37:24;;;;;;;14.23;9.90;;;;;;;19.83;80.52;100049.16;126687;1090;114449;-81
2021/07/10 01:40:15;;;;;;;16.13;10.20;;;;;;;19.83;80.38;100052.66;126859;1090;102913;-81
2021/07/10 01:43:05;;;;;;;13.63;9.10;;;;;;;19.83;80.98;100047.36;126839;1090;114641;-82
2021/07/10 01:45:53;;;;;;;23.73;9.90;;;;;;;19.78;80.19;100046.86;127008;1090;103942;-81
2021/07/10 01:48:40;;;;;;;14.87;10.13;;;;;;;19.72;80.84;100039.35;126866;1090;114287;-82
2021/07/10 01:51:28;;;;;;;16.70;10.50;;;;;;;19.72;80.92;100038.51;126814;1088;102644;-82
2021/07/10 01:54:16;;;;;;;16.33;10.47;;;;;;;19.72;81.03;100036.70;126690;1090;113640;-81
2021/07/10 01:57:08;;;;;;;15.33;10.27;;;;;;;19.73;81.02;100032.26;126932;1090;102868;-81
2021/07/10 01:59:56;;;;;;;15.03;9.70;;;;;;;19.67;80.97;100036.20;126702;1090;115151;-81
2021/07/10 02:02:45;;;;;;;12.53;10.57;;;;;;;19.67;81.51;100061.83;126831;1089;101477;-81
2021/07/10 02:05:33;;;;;;;15.53;11.00;;;;;;;19.65;81.41;100069.88;126794;1090;103029;-81
2021/07/10 02:08:20;;;;;;;14.77;11.10;;;;;;;19.64;81.69;100057.60;126731;1090;114699;-81
2021/07/10 02:11:08;;;;;;;12.60;11.10;;;;;;;19.64;81.35;100051.47;126746;1090;101812;-81
2021/07/10 02:13:57;;;;;;;13.87;11.53;;;;;;;19.64;81.24;100062.89;126709;1090;114980;-81
2021/07/10 02:16:46;;;;;;;16.33;11.20;;;;;;;19.63;81.14;100069.14;126753;1090;103517;-81
2021/07/10 02:19:34;;;;;;;17.33;10.83;;;;;;;19.63;81.04;100081.53;126698;1090;113492;-81
2021/07/10 02:22:22;;;;;;;14.37;11.87;;;;;;;19.62;82.04;100096.56;126907;1090;102987;-81
2021/07/10 02:25:12;;;;;;;16.60;11.57;;;;;;;19.62;81.45;100085.98;126723;1090;114550;-81
2021/07/10 02:28:00;;;;;;;19.67;12.03;;;;;;;19.64;81.75;100085.86;126817;1090;102855;-82
2021/07/10 02:30:49;;;;;;;15.43;11.63;;;;;;;19.64;81.56;100089.35;126741;1090;114620;-81
2021/07/10 02:33:37;;;;;;;17.33;12.50;;;;;;;19.63;81.40;100079.73;126926;1090;102859;-81
2021/07/10 02:36:25;;;;;;;19.33;12.20;;;;;;;19.64;81.27;100081.41;126698;1088;114833;-81
2021/07/10 02:39:13;;;;;;;17.37;12.27;;;;;;;19.67;81.20;100067.95;127000;1089;104471;-81
2021/07/10 02:42:01;;;;;;;17.60;12.10;;;;;;;19.69;81.33;100092.50;126738;1090;114584;-81
2021/07/10 02:44:50;;;;;;;19.93;13.33;;;;;;;19.67;81.84;100089.13;126931;1089;102951;-81
2021/07/10 02:47:38;;;;;;;23.70;14.50;;;;;;;19.63;81.55;100105.34;126910;1088;102911;-81
2021/07/10 02:50:27;;;;;;;20.63;13.57;;;;;;;19.61;81.63;100100.16;126896;1088;113179;-81
2021/07/10 02:53:15;;;;;;;18.17;12.53;;;;;;;19.55;81.79;100100.58;126931;1089;102931;-81
2021/07/10 02:56:03;;;;;;;15.90;13.27;;;;;;;19.51;82.09;100099.08;126762;1089;114628;-81
2021/07/10 02:58:52;;;;;;;21.17;13.20;;;;;;;19.47;81.83;100108.20;126937;1090;103004;-81
2021/07/10 03:01:39;;;;;;;18.13;13.90;;;;;;;19.45;82.63;100107.47;126722;1090;114684;-81
2021/07/10 03:04:27;;;;;;;16.80;12.57;;;;;;;19.44;82.22;100103.13;126945;1090;102881;-81
2021/07/10 03:07:15;;;;;;;17.00;13.20;;;;;;;19.43;82.49;100102.29;126850;1088;114456;-81
2021/07/10 03:10:06;;;;;;;17.17;14.10;;;;;;;19.44;82.66;100103.13;126777;1089;102943;-81
2021/07/10 03:12:58;;;;;;;23.17;14.23;;;;;;;19.47;82.87;100105.55;126779;1090;114598;-81
2021/07/10 03:15:50;;;;;;;20.07;13.03;;;;;;;19.49;82.28;100090.41;126791;1090;103074;-81
2021/07/10 03:18:37;;;;;;;15.70;12.83;;;;;;;19.47;82.43;100094.97;126581;1089;113691;-80
2021/07/10 03:21:25;;;;;;;18.50;13.97;;;;;;;19.49;82.25;100091.26;126942;1089;103438;-80
2021/07/10 03:24:14;;;;;;;17.90;13.67;;;;;;;19.51;82.01;100105.22;126713;1088;115917;-80
2021/07/10 03:27:02;;;;;;;16.57;12.03;;;;;;;19.50;82.31;100105.33;126718;1090;102944;-82
2021/07/10 03:29:50;;;;;;;18.20;13.17;;;;;;;19.53;82.54;100107.75;126804;1090;102830;-82
2021/07/10 03:32:39;;;;;;;13.90;12.23;;;;;;;19.58;82.49;100106.52;126735;1088;114707;-80
2021/07/10 03:35:26;;;;;;;18.23;13.83;;;;;;;19.56;82.58;100094.33;126800;1089;102933;-80
2021/07/10 03:38:14;;;;;;;;;;;;;;;19.59;82.17;100108.21;126649;1089;113382;-80
2021/07/10 03:41:01;;;;;;;16.93;13.57;;;;;;;19.63;82.71;100114.13;126946;1090;102849;-80
2021/07/10 03:43:49;;;;;;;17.43;13.57;;;;;;;19.68;82.38;100122.56;126606;1090;114547;-80
2021/07/10 03:46:38;;;;;;;19.07;14.13;;;;;;;19.66;83.15;100129.77;126958;1089;102997;-80
2021/07/10 03:49:26;;;;;;;20.07;15.17;;;;;;;19.63;82.40;100129.99;126638;1090;114636;-82
2021/07/10 03:52:13;;;;;;;20.03;14.87;;;;;;;19.64;82.45;100120.26;126811;1089;101367;-82
2021/07/10 03:55:01;;;;;;;;;;;;;;;19.65;82.59;100125.44;126671;1089;114537;-81
2021/07/10 03:57:48;;;;;;;20.07;14.13;;;;;;;19.66;82.62;100119.19;126819;1089;102843;-80
2021/07/10 04:00:36;;;;;;;20.30;14.97;;;;;;;19.65;82.69;100121.95;126757;1090;114634;-81
2021/07/10 04:03:24;;;;;;;20.40;16.03;;;;;;;19.69;82.82;100124.25;127028;1090;101426;-80
2021/07/10 04:06:12;;;;;;;18.83;14.13;;;;;;;19.70;82.06;100131.23;126826;1090;103130;-80
2021/07/10 04:09:00;;;;;;;17.03;14.10;;;;;;;19.72;82.29;100123.19;126776;1089;102848;-80
2021/07/10 04:11:47;;;;;;;17.40;13.73;;;;;;;19.77;82.61;100110.48;126928;1088;102885;-82
2021/07/10 04:14:37;;;;;;;18.20;13.60;;;;;;;19.81;81.89;100118.09;126851;1089;114404;-82
2021/07/10 04:17:24;;;;;;;18.13;14.20;;;;;;;19.83;81.52;100133.85;126931;1089;102997;-82
2021/07/10 04:20:14;;;;;;;18.05;13.70;;;;;;;19.78;82.33;100143.94;126823;1089;114606;-83
2021/07/10 04:23:05;;;;;;;21.50;15.43;;;;;;;19.73;82.41;100141.59;126802;1089;102884;-82
2021/07/10 04:25:54;;;;;;;21.47;15.77;;;;;;;19.77;82.25;100153.67;126613;1090;114458;-82
2021/07/10 04:28:41;;;;;;;18.80;14.77;;;;;;;19.78;81.90;100157.16;126791;1089;104390;-83
2021/07/10 04:31:29;;;;;;;17.35;14.75;;;;;;;19.75;81.77;100155.59;126635;1088;114452;-82
2021/07/10 04:34:18;;;;;;;17.73;13.80;;;;;;;19.74;81.61;100153.02;126763;1089;100567;-82
2021/07/10 04:37:06;;;;;;;17.90;14.60;;;;;;;19.76;82.24;100149.34;126851;1090;114684;-82
2021/07/10 04:39:53;;;;;;;22.83;15.50;;;;;;;19.81;81.51;100155.14;126755;1089;102870;-81
2021/07/10 04:42:41;;;;;;;19.67;15.80;;;;;;;19.91;81.63;100156.14;126728;1089;115314;-82
2021/07/10 04:45:30;;;;;;;22.87;17.77;;;;;;;19.97;81.07;100159.33;126798;1090;102920;-81
2021/07/10 04:48:18;;;;;;;22.90;18.40;;;;;;;20.01;81.12;100145.75;126868;1090;102882;-83
2021/07/10 04:51:06;;;;;;;18.90;16.47;;;;;;;20.03;80.60;100146.48;126840;1089;114234;-82
2021/07/10 04:53:55;;;;;;;20.60;15.93;;;;;;;20.03;80.61;100146.48;126717;1089;102817;-83
2021/07/10 04:56:43;;;;;;;18.63;16.50;;;;;;;20.04;80.61;100156.11;126811;1090;114897;-82
2021/07/10 04:59:31;;;;;;;20.87;16.57;;;;;;;20.01;80.17;100150.20;126777;1090;107106;-83
2021/07/10 05:02:18;;;;;;;21.13;16.20;;;;;;;20.03;79.60;100159.72;126675;1090;114451;-83
2021/07/10 05:05:08;;;;;;;14.57;12.43;;;;;;;20.03;78.87;100153.58;127001;1090;102847;-83
2021/07/10 05:08:02;;;;;;;15.67;12.07;;;;;;;20.01;78.58;100158.14;126652;1088;114642;-82
2021/07/10 05:10:51;;;;;;;10.77;7.80;;;;;;;19.95;77.04;100159.44;126933;1089;102843;-82
2021/07/10 05:13:40;;;;;;;11.40;6.40;;;;;;;19.83;76.40;100169.10;126707;1089;113362;-83
2021/07/10 05:16:29;;;;;;;7.37;5.50;;;;;;;19.76;75.87;100173.16;126788;1090;102923;-82
2021/07/10 05:19:18;;;;;;;7.30;4.83;;;;;;;19.69;75.32;100177.17;126730;1090;114506;-83
2021/07/10 05:22:06;;;;;;;5.43;4.23;;;;;;;19.58;74.88;100171.81;126937;1089;103048;-82
2021/07/10 05:24:54;;;;;;;5.93;3.70;;;;;;;19.51;74.61;100165.21;126691;1090;113930;-81
2021/07/10 05:27:42;;;;;;;3.57;3.03;;;;;;;19.47;74.33;100174.33;126759;1090;102849;-82
2021/07/10 05:30:31;;;;;;;4.60;2.60;;;;;;;19.40;74.26;100165.14;126812;1089;100756;-82
2021/07/10 05:33:19;;;;;;;3.00;2.40;;;;;;;19.31;73.64;100167.45;126722;1088;114170;-82
2021/07/10 05:36:06;;;;;;;4.00;2.23;;;;;;;19.23;73.51;100163.67;126939;1090;102810;-82
2021/07/10 05:38:54;;;;;;;4.47;1.97;;;;;;;19.17;72.95;100164.06;126802;1090;113025;-82
2021/07/10 05:41:42;;;;;;;3.00;1.80;;;;;;;19.10;73.15;100178.67;126766;1089;103009;-82
2021/07/10 05:44:30;;;;;;;3.03;2.00;;;;;;;19.11;73.19;100173.28;126703;1089;114185;-82
2021/07/10 05:47:18;;;;;;;5.30;2.13;;;;;;;19.21;73.11;100161.13;126817;1090;103456;-82
2021/07/10 05:50:09;;;;;;;6.17;3.10;;;;;;;19.23;73.03;100175.09;126680;1089;113088;-82
2021/07/10 05:52:56;;;;;;;2.73;2.10;;;;;;;19.26;72.86;100185.45;126793;1089;102813;-82
2021/07/10 05:55:45;;;;;;;3.63;1.63;;;;;;;19.23;72.40;100196.23;126835;1090;114144;-83
2021/07/10 05:58:32;;;;;;;2.10;1.80;;;;;;;19.10;71.89;100197.18;126802;1090;102905;-82
2021/07/10 06:01:22;;;;;;;1.80;1.40;;;;;;;18.97;71.88;100220.94;126730;1089;114253;-82
2021/07/10 06:04:11;;;;;;;1.67;1.57;;;;;;;18.89;71.56;100216.19;126803;1088;102953;-82
2021/07/10 06:06:59;;;;;;;2.73;1.57;;;;;;;18.80;72.08;100219.42;126669;1089;113214;-82
2021/07/10 06:09:47;;;;;;;2.57;1.37;;;;;;;18.71;71.94;100207.69;126876;1089;102968;-82
2021/07/10 06:12:35;;;;;;;3.07;1.30;;;;;;;18.71;72.09;100199.77;126866;1089;101089;-81
2021/07/10 06:15:23;;;;;;;2.10;1.60;;;;;;;18.77;72.31;100205.58;126869;1090;114153;-81
2021/07/10 06:18:11;;;;;;;3.37;1.90;;;;;;;18.96;72.21;100198.95;126762;1090;102959;-82
2021/07/10 06:20:59;;;;;;;2.67;1.57;;;;;;;19.20;71.94;100204.36;126761;1088;113077;-82
2021/07/10 06:23:49;;;;;;;4.47;1.83;;;;;;;19.55;71.34;100193.17;126823;1089;101013;-83
2021/07/10 06:26:37;;;;;;;2.87;1.60;;;;;;;19.99;70.69;100195.32;126784;1090;114278;-82
2021/07/10 06:29:25;;;;;;;4.20;1.77;;;;;;;20.40;69.85;100192.30;126849;1090;102958;-82
2021/07/10 06:32:13;;;;;;;1.93;1.57;;;;;;;21.78;69.08;100205.67;126753;1090;114351;-82
2021/07/10 06:35:01;;;;;;;3.50;1.50;;;;;;;23.83;66.09;100200.88;126834;1090;102980;-82
2021/07/10 06:37:49;;;;;;;3.80;1.53;;;;;;;24.87;62.35;100186.16;126766;1090;114105;-83
2021/07/10 06:40:37;;;;;;;2.80;1.23;;;;;;;25.75;59.51;100184.98;126772;1090;102867;-83
2021/07/10 06:43:24;;;;;;;1.20;1.10;;;;;;;25.93;57.91;100185.03;126749;1090;114311;-83
2021/07/10 06:46:12;;;;;;;2.60;1.70;;;;;;;25.38;57.03;100195.64;126785;1090;102842;-83
2021/07/10 06:49:00;;;;;;;1.73;1.47;;;;;;;24.63;57.55;100206.13;126903;1090;102878;-83
2021/07/10 06:51:49;;;;;;;3.90;1.50;;;;;;;23.89;57.60;100212.84;126655;1089;114142;-82
2021/07/10 06:54:37;;;;;;;3.70;1.80;;;;;;;23.21;59.03;100210.67;126826;1090;103441;-83
2021/07/10 06:57:25;;;;;;;3.13;1.63;;;;;;;22.84;59.89;100210.28;126843;1089;113171;-83
2021/07/10 07:00:16;;;;;;;1.83;1.47;;;;;;;22.51;61.01;100221.86;126860;1090;104235;-83
2021/07/10 07:03:04;;;;;;;1.70;1.60;;;;;;;22.28;60.75;100202.49;126737;1089;114180;-83
2021/07/10 07:05:53;;;;;;;2.20;1.63;;;;;;;21.90;61.19;100215.30;126700;1088;102850;-82
2021/07/10 07:08:42;;;;;;;3.50;1.87;;;;;;;21.48;61.93;100223.03;126835;1089;114100;-82
2021/07/10 07:11:29;;;;;;;3.17;2.07;;;;;;;21.07;62.58;100226.20;126760;1089;102852;-82
2021/07/10 07:14:18;;;;;;;2.03;1.80;;;;;;;20.85;62.94;100232.28;126660;1090;114196;-82
2021/07/10 07:17:07;;;;;;;2.97;1.60;;;;;;;20.66;62.81;100231.97;126795;1089;102835;-82
2021/07/10 07:19:55;;;;;;;3.10;1.70;;;;;;;20.41;63.55;100239.05;126778;1090;114273;-82
2021/07/10 07:22:47;;;;;;;3.30;1.70;;;;;;;20.42;64.31;100239.89;126918;1090;103056;-82
2021/07/10 07:25:35;;;;;;;2.83;1.77;;;;;;;21.10;64.87;100237.41;126678;1088;114225;-83
2021/07/10 07:28:23;;;;;;;3.33;1.40;;;;;;;21.86;62.79;100225.33;126784;1090;103399;-82
2021/07/10 07:31:11;;;;;;;1.80;1.70;;;;;;;22.58;61.69;100216.87;126699;1090;102844;-82
2021/07/10 07:33:59;;;;;;;2.17;1.73;;;;;;;23.80;60.79;100223.31;126655;1090;114370;-82
2021/07/10 07:36:48;;;;;;;1.57;1.40;;;;;;;25.61;58.44;100226.33;126813;1089;103048;-82
2021/07/10 07:39:36;;;;;;;2.37;1.47;;;;;;;26.92;54.31;100221.46;126745;1088;114251;-82
2021/07/10 07:42:24;;;;;;;1.20;1.10;;;;;;;27.78;52.68;100243.02;126860;1090;103078;-82
2021/07/10 07:45:12;;;;;;;1.10;1.00;;;;;;;29.34;50.07;100247.70;126657;1090;114092;-82
2021/07/10 07:48:01;;;;;;;2.37;0.70;;;;;;;30.73;46.79;100230.02;126872;1089;102939;-82
2021/07/10 07:50:48;;;;;;;1.10;0.80;;;;;;;31.60;46.17;100227.72;126608;1089;114353;-83
2021/07/10 07:53:37;;;;;;;2.67;0.93;;;;;;;32.24;44.41;100237.88;126967;1090;102866;-81
2021/07/10 07:56:26;;;;;;;1.47;0.90;;;;;;;32.44;44.01;100255.17;126608;1088;114298;-82
2021/07/10 07:59:14;;;;;;;1.70;0.67;;;;;;;31.80;42.85;100266.61;126795;1090;102927;-82
2021/07/10 08:02:04;;;;;;;0.50;0.40;;;;;;;30.86;42.22;100248.24;126703;1089;114261;-80
2021/07/10 08:04:52;;;;;;;1.20;0.50;;;;;;;30.09;42.70;100248.20;126751;1090;102873;-83
2021/07/10 08:07:41;;;;;;;0.40;0.33;;;;;;;29.47;42.29;100253.43;126832;1089;114258;-82
2021/07/10 08:10:29;;;;;;;1.27;0.70;;;;;;;29.16;43.75;100261.33;126802;1090;102692;-80
2021/07/10 08:13:17;;;;;;;1.43;0.60;;;;;;;29.90;43.49;100262.88;126902;1090;103055;-83
2021/07/10 08:16:08;;;;;;;2.23;0.60;;;;;;;30.08;42.13;100260.81;126790;1089;114012;-81
2021/07/10 08:18:56;;;;;;;1.03;0.60;;;;;;;29.42;42.52;100272.70;126766;1090;102991;-83
2021/07/10 08:21:45;;;;;;;0.80;0.50;;;;;;;28.74;43.81;100273.03;126761;1090;114156;-83
2021/07/10 08:24:33;;;;;;;0.87;0.50;;;;;;;28.16;43.61;100270.31;126661;1089;102695;-83
2021/07/10 08:27:21;;;;;;;1.23;0.80;;;;;;;27.34;44.65;100269.02;126635;1090;114146;-83
2021/07/10 08:30:13;;;;;;;1.80;0.60;;;;;;;26.66;45.68;100266.06;126884;1089;103307;-83
2021/07/10 08:33:01;;;;;;;1.13;0.60;;;;;;;25.99;46.20;100272.61;126584;1090;114439;-82
2021/07/10 08:35:50;;;;;;;1.03;0.70;;;;;;;25.41;47.24;100291.47;126789;1090;102866;-82
2021/07/10 08:38:38;;;;;;;5.20;0.80;;;;;;;24.98;48.07;100300.75;126639;1090;114308;-83
2021/07/10 08:41:26;;;;;;;1.83;0.50;;;;;;;24.44;48.82;100306.58;126741;1088;102929;-82
2021/07/10 08:44:15;;;;;;;2.00;0.60;;;;;;;23.91;49.82;100302.29;126648;1089;114177;-83
2021/07/10 08:47:03;;;;;;;0.93;0.80;;;;;;;23.50;50.50;100288.00;126747;1090;102850;-83
2021/07/10 08:49:51;;;;;;;1.50;1.40;;;;;;;23.21;51.45;100300.29;126788;1090;114523;-83
2021/07/10 08:52:41;;;;;;;1.10;0.80;;;;;;;23.00;51.86;100297.61;126907;1090;101891;-83
2021/07/10 08:55:29;;;;;;;0.73;0.70;;;;;;;22.85;51.74;100299.72;126929;1090;102840;-83
2021/07/10 08:58:17;;;;;;;0.70;0.70;;;;;;;22.80;52.16;100307.20;126608;1089;114088;-83
2021/07/10 09:01:08;;;;;;;0.70;0.70;;;;;;;23.18;52.76;100311.20;126790;1088;102992;-82
2021/07/10 09:03:56;;;;;;;2.90;0.70;;;;;;;23.90;52.07;100311.26;126776;1090;114358;-82
2021/07/10 09:06:43;;;;;;;0.77;0.60;;;;;;;24.27;51.31;100306.22;126742;1089;102718;-82
2021/07/10 09:09:45;;;;;;;0.50;0.50;;;;;;;24.77;49.70;100313.34;126684;1089;114588;-83
2021/07/10 09:12:33;;;;;;;2.87;0.60;;;;;;;25.24;49.74;100301.88;126779;1090;103043;-83
2021/07/10 09:15:22;;;;;;;0.80;0.53;;;;;;;25.56;50.23;100306.05;126730;1088;114299;-83
2021/07/10 09:18:15;;;;;;;0.63;0.60;;;;;;;25.99;49.02;100302.00;126783;1090;102874;-83
2021/07/10 09:21:03;;;;;;;0.60;0.50;;;;;;;26.18;48.33;100315.28;126779;1090;114234;-80
2021/07/10 09:23:51;;;;;;;4.20;0.70;;;;;;;26.32;48.94;100306.78;126785;1089;103392;-81
2021/07/10 09:26:44;;;;;;;2.27;0.83;;;;;;;26.65;48.04;100299.16;126748;1090;114095;-81
2021/07/10 09:29:43;;;;;;;1.40;0.90;;;;;;;26.57;47.03;100312.42;126966;1089;102947;-81
2021/07/10 09:32:31;;;;;;;1.20;0.90;;;;;;;26.31;46.54;100313.11;126728;1089;114547;-81
2021/07/10 09:35:28;;;;;;;1.00;1.00;;;;;;;26.05;47.82;100314.80;126935;1089;103115;-82
2021/07/10 09:38:25;;;;;;;5.78;1.93;;;;;;;26.14;47.91;100314.74;126608;1090;114293;-81
2021/07/10 09:41:24;;;;;;;0.40;0.40;;;;;;;26.00;47.37;100319.72;126771;1090;102930;-81
2021/07/10 09:44:14;;;;;;;0.63;0.63;;;;;;;25.86;47.77;100313.89;126807;1090;113213;-81
2021/07/10 09:47:05;;;;;;;0.67;0.67;;;;;;;25.56;47.35;100317.58;126815;1090;101372;-81
2021/07/10 09:49:56;;;;;;;2.30;0.87;;;;;;;25.36;47.58;100323.09;126716;1088;114331;-81
2021/07/10 09:52:43;;;;;;;1.10;1.00;;;;;;;25.09;48.16;100319.30;126778;1088;103207;-81
2021/07/10 09:55:31;;;;;;;0.90;0.70;;;;;;;25.27;48.25;100322.95;126809;1089;102884;-81
2021/07/10 09:58:32;;;;;;;1.80;0.60;;;;;;;25.47;47.98;100325.59;126846;1088;114073;-81
2021/07/10 10:01:35;;;;;;;2.20;0.90;;;;;;;25.70;48.20;100329.68;126831;1090;102848;-81
2021/07/10 10:04:33;;;;;;;0.60;0.60;;;;;;;26.23;47.13;100317.53;126699;1090;114223;-82
2021/07/10 10:07:21;;;;;;;;;;;;;;;26.69;47.23;100313.91;126996;1089;102856;-82
2021/07/10 10:10:24;;;;;;;2.67;0.50;;;;;;;27.32;45.93;100313.86;126904;1089;102794;-82
2021/07/10 10:13:14;;;;;;;0.67;0.67;;;;;;;27.58;45.47;100333.47;127068;1089;103275;-82
2021/07/10 10:16:14;;;;;;;0.90;0.90;;;;;;;27.39;45.16;100341.69;126642;1089;114089;-81
2021/07/10 10:19:02;;;;;;;0.93;0.80;;;;;;;27.14;44.35;100342.49;126894;1090;102875;-82
2021/07/10 10:21:53;;;;;;;0.90;0.90;;;;;;;26.91;45.00;100348.25;126924;1090;114562;-82
2021/07/10 10:24:50;;;;;;;1.83;0.80;;;;;;;26.79;44.98;100355.67;126782;1090;102882;-82
2021/07/10 10:27:39;;;;;;;1.75;0.90;;;;;;;26.68;44.93;100347.00;126720;1090;114318;-82
2021/07/10 10:30:26;;;;;;;0.80;0.80;;;;;;;26.45;45.36;100352.77;126758;1090;102876;-82
2021/07/10 10:33:15;;;;;;;1.50;0.80;;;;;;;26.40;45.44;100351.55;126819;1089;114091;-82
2021/07/10 10:36:04;;;;;;;1.40;1.10;;;;;;;26.18;45.36;100355.38;126809;1088;102858;-81
2021/07/10 10:38:52;;;;;;;0.80;0.80;;;;;;;25.76;45.49;100354.96;126857;1090;114264;-82
2021/07/10 10:41:43;;;;;;;0.73;0.73;;;;;;;25.39;45.61;100358.36;126890;1090;102904;-82
2021/07/10 10:44:37;;;;;;;1.13;0.70;;;;;;;24.96;45.39;100366.76;126689;1090;114261;-82
2021/07/10 10:47:37;;;;;;;0.80;0.80;;;;;;;24.51;46.50;100377.87;126755;1090;102884;-81
2021/07/10 10:50:34;;;;;;;0.73;0.73;;;;;;;24.27;47.62;100372.00;126885;1090;114364;-81
2021/07/10 10:53:23;;;;;;;1.67;1.40;;;;;;;24.15;48.20;100375.73;127017;1090;102846;-81
2021/07/10 10:56:35;;;;;;;1.17;1.07;;;;;;;24.09;48.32;100382.44;126808;1089;114474;-81
2021/07/10 10:59:45;;;;;;;0.90;0.90;;;;;;;23.94;48.28;100383.75;126858;1089;100724;-82
2021/07/10 11:02:42;;;;;;;1.37;0.90;;;;;;;23.77;48.61;100387.86;126747;1090;114481;-81
2021/07/10 11:05:34;;;;;;;1.83;0.80;;;;;;;23.60;48.47;100397.27;126988;1089;103004;-81
2021/07/10 11:08:29;;;;;;;1.40;1.20;;;;;;;23.49;49.61;100386.63;126682;1089;113170;-81
2021/07/10 11:11:23;;;;;;;2.00;1.13;;;;;;;23.39;50.28;100394.55;126949;1090;102921;-81
2021/07/10 11:14:14;;;;;;;1.43;1.00;;;;;;;23.24;50.37;100398.48;126690;1089;113394;-81
2021/07/10 11:17:06;;;;;;;1.13;0.80;;;;;;;23.11;49.85;100403.11;126827;1089;102858;-81
2021/07/10 11:19:55;;;;;;;1.57;0.93;;;;;;;22.94;50.38;100416.94;126808;1090;102842;-82
2021/07/10 11:22:55;;;;;;;1.60;1.30;;;;;;;22.88;50.73;100415.63;126770;1090;102924;-82
2021/07/10 11:25:48;;;;;;;1.10;1.00;;;;;;;22.79;50.68;100411.01;126913;1089;102934;-83
2021/07/10 11:28:51;;;;;;;1.67;1.00;;;;;;;22.80;51.40;100410.91;126850;1089;114093;-83
2021/07/10 11:31:39;;;;;;;3.67;0.93;;;;;;;22.79;51.64;100414.52;126850;1088;103101;-83
2021/07/10 11:34:51;;;;;;;2.07;1.43;;;;;;;22.85;51.95;100430.03;126701;1089;114291;-83
2021/07/10 11:37:43;;;;;;;2.30;2.10;;;;;;;22.92;51.80;100427.70;126848;1090;102878;-83
2021/07/10 11:40:41;;;;;;;2.00;1.80;;;;;;;22.99;51.90;100422.76;126686;1090;114234;-82
2021/07/10 11:43:39;;;;;;;;;;;;;;;22.98;51.25;100426.36;126860;1089;102352;-83
2021/07/10 11:46:27;;;;;;;4.57;2.50;;;;;;;22.90;51.51;100426.98;126682;1089;102842;-83
2021/07/10 11:49:40;;;;;;;2.53;1.70;;;;;;;22.86;51.46;100420.23;126813;1088;102875;-82
2021/07/10 11:52:28;;;;;;;1.53;1.43;;;;;;;22.73;51.79;100430.97;126799;1090;114086;-82
2021/07/10 11:55:23;;;;;;;1.80;1.70;;;;;;;22.68;51.42;100425.18;126818;1090;102998;-83
2021/07/10 11:58:16;;;;;;;1.60;1.50;;;;;;;22.61;51.86;100430.12;126845;1089;114136;-83
2021/07/10 12:01:04;;;;;;;1.47;1.37;;;;;;;22.64;51.95;100433.53;126828;1090;102699;-83
2021/07/10 12:03:52;;;;;;;2.10;1.90;;;;;;;22.64;52.21;100434.38;126569;1089;114363;-82
2021/07/10 12:06:40;;;;;;;1.83;1.73;;;;;;;22.72;52.28;100428.43;126780;1090;102958;-84
2021/07/10 12:09:28;;;;;;;2.50;1.60;;;;;;;22.83;52.64;100428.47;126639;1089;113144;-83
2021/07/10 12:12:15;;;;;;;1.70;1.60;;;;;;;22.90;51.67;100429.65;126871;1088;103001;-82
2021/07/10 12:15:03;;;;;;;1.67;1.57;;;;;;;22.96;51.28;100426.48;126652;1088;114239;-82
2021/07/10 12:17:53;;;;;;;2.97;1.60;;;;;;;23.08;51.38;100422.84;126826;1090;102917;-82
2021/07/10 12:20:57;;;;;;;2.57;1.70;;;;;;;23.35;51.95;100414.42;126672;1088;114235;-82
2021/07/10 12:23:46;;;;;;;2.67;2.00;;;;;;;23.47;51.42;100424.03;126787;1089;102897;-82
2021/07/10 12:26:34;;;;;;;3.67;1.20;;;;;;;23.44;50.68;100429.61;126780;1089;114390;-82
2021/07/10 12:29:22;;;;;;;0.97;0.97;;;;;;;23.37;50.78;100420.45;126880;1089;102886;-82
2021/07/10 12:32:17;;;;;;;3.13;1.20;;;;;;;23.23;50.48;100434.05;126805;1089;102853;-82
2021/07/10 12:35:05;;;;;;;0.93;0.93;;;;;;;23.08;50.97;100432.63;126798;1088;112790;-82
2021/07/10 12:38:08;;;;;;;1.20;1.10;;;;;;;22.83;50.54;100433.78;126745;1090;102871;-82
2021/07/10 12:40:56;;;;;;;1.70;0.97;;;;;;;22.69;51.06;100426.87;126848;1090;114900;-82
2021/07/10 12:43:44;;;;;;;3.60;1.30;;;;;;;22.71;51.59;100430.25;126854;1088;102651;-82
2021/07/10 12:47:12;;;;;;;1.63;1.00;;;;;;;22.80;51.21;100434.84;126791;1090;114251;-82